Thornton, Washington
Current Conditions -  °F | °C
As of 2:25 AM on Thursday 18 Dec 2014 (Local Time) from KPUW Reporting Station
Light Rain Light Rain  
Wind Chill: 36°   Ceiling: 3300
Heat Index: 36°   Visibility: 7mi
Dew Point: 35°   Wind: 0mph
Humidity: 97%   Direction: NA
Pressure: 29.99"   Gusts: NA
Location:  47.12°N, 117.39°W
Report Text: KPUW 181025Z AUTO 00000KT 7SM -RA SCT023 OVC033 02/02 A2999 RMK AO2 UPB06E12 P0000 T00220017
Loading
Personal Weather Stations






























Interactive Weather Map New forecast layout! Learn more

10-Day Weather Forecast

Advertisements
Track Severe Weather on mobile